Time;durP1;ratioP1;P1;durP2;ratioP2;P2;SDS_P1;SDS_P2;PMS_P1;PMS_P2;Temp;Humidity;BMP_temperature;BMP_pressure;BME280_temperature;BME280_humidity;BME280_pressure;Samples;Min_cycle;Max_cycle;Signal;HPM_P1;HPM_P2
2024/04/07 00:00:56;;;;;;;18.60;17.20;;;15.20;78.80;;;;;;4919371;29;20185;-85
2024/04/07 00:03:22;;;;;;;19.30;17.90;;;15.20;78.60;;;;;;4919349;29;20673;-85
2024/04/07 00:05:53;;;;;;;19.08;17.55;;;15.20;78.40;;;;;;4919014;29;20181;-85
2024/04/07 00:08:18;;;;;;;19.33;18.02;;;15.20;78.10;;;;;;4918901;29;20172;-85
2024/04/07 00:10:44;;;;;;;19.83;18.38;;;15.20;78.00;;;;;;4919029;29;20232;-85
2024/04/07 00:13:09;;;;;;;19.42;17.92;;;15.30;77.60;;;;;;4918719;29;20216;-85
2024/04/07 00:15:35;;;;;;;19.15;17.65;;;15.30;77.80;;;;;;4918877;29;20185;-85
2024/04/07 00:18:00;;;;;;;19.08;17.77;;;15.20;77.90;;;;;;4918612;29;20263;-85
2024/04/07 00:20:26;;;;;;;19.30;17.75;;;15.20;78.00;;;;;;4918703;29;20176;-85
2024/04/07 00:22:51;;;;;;;19.20;17.80;;;15.20;78.00;;;;;;4918588;29;20200;-85
2024/04/07 00:25:17;;;;;;;19.05;17.60;;;15.10;77.90;;;;;;4917111;29;20661;-85
2024/04/07 00:27:45;;;;;;;19.05;17.55;;;15.00;78.00;;;;;;4918292;29;20601;-84
2024/04/07 00:30:11;;;;;;;19.05;17.65;;;15.00;77.50;;;;;;4917233;29;20184;-84
2024/04/07 00:32:37;;;;;;;19.75;18.25;;;14.90;77.50;;;;;;4918619;29;20181;-86
2024/04/07 00:35:03;;;;;;;18.67;16.98;;;15.00;77.50;;;;;;4917214;29;20180;-85
2024/04/07 00:37:28;;;;;;;19.00;17.42;;;14.90;77.90;;;;;;4918703;29;20233;-86
2024/04/07 00:39:56;;;;;;;18.52;17.20;;;14.90;77.90;;;;;;4917059;29;20274;-84
2024/04/07 00:42:21;;;;;;;18.75;17.27;;;15.00;77.60;;;;;;4918458;29;20181;-85
2024/04/07 00:44:47;;;;;;;17.88;16.58;;;15.10;76.90;;;;;;4916862;29;20584;-85
2024/04/07 00:47:13;;;;;;;18.42;17.02;;;15.10;76.80;;;;;;4918824;29;20228;-85
2024/04/07 00:49:41;;;;;;;18.02;16.63;;;15.10;76.80;;;;;;4918461;29;20184;-84
2024/04/07 00:52:06;;;;;;;17.95;16.70;;;15.10;77.20;;;;;;4918708;29;20177;-85
2024/04/07 00:54:32;;;;;;;18.02;16.52;;;14.90;77.80;;;;;;4917396;29;20264;-85
2024/04/07 00:56:58;;;;;;;18.20;16.80;;;15.00;77.20;;;;;;4918596;29;20586;-85
2024/04/07 00:59:24;;;;;;;17.88;16.50;;;14.90;77.50;;;;;;4918259;29;20187;-84
2024/04/07 01:01:50;;;;;;;18.00;16.63;;;14.80;78.10;;;;;;4917237;29;20228;-86
2024/04/07 01:04:16;;;;;;;17.55;16.45;;;14.70;78.40;;;;;;4918369;29;20228;-85
2024/04/07 01:06:41;;;;;;;17.20;15.93;;;14.60;78.80;;;;;;4918269;29;20224;-85
2024/04/07 01:09:09;;;;;;;17.63;16.35;;;14.50;79.00;;;;;;4916351;29;20180;-84
2024/04/07 01:11:35;;;;;;;17.95;16.65;;;14.50;79.10;;;;;;4918097;29;20228;-85
2024/04/07 01:14:02;;;;;;;17.45;16.02;;;14.30;79.30;;;;;;4916460;29;20204;-85
2024/04/07 01:16:27;;;;;;;18.05;16.73;;;14.30;79.30;;;;;;4917769;29;20554;-86
2024/04/07 01:18:53;;;;;;;18.17;16.55;;;14.30;79.50;;;;;;4918428;29;20180;-85
2024/04/07 01:21:18;;;;;;;18.02;16.58;;;14.30;79.30;;;;;;4917652;29;20653;-85
2024/04/07 01:23:44;;;;;;;17.67;16.48;;;14.30;79.40;;;;;;4916631;29;20219;-87
2024/04/07 01:26:09;;;;;;;18.23;16.83;;;14.50;79.10;;;;;;4916846;29;20582;-84
2024/04/07 01:28:35;;;;;;;18.17;16.98;;;14.50;78.80;;;;;;4917786;29;20176;-85
2024/04/07 01:31:01;;;;;;;17.98;16.77;;;14.40;79.00;;;;;;4916794;29;20180;-85
2024/04/07 01:33:27;;;;;;;18.02;16.73;;;14.30;79.20;;;;;;4917794;29;20192;-85
2024/04/07 01:35:52;;;;;;;19.05;17.60;;;14.20;79.80;;;;;;4917894;29;20185;-85
2024/04/07 01:38:18;;;;;;;19.00;17.63;;;14.30;78.20;;;;;;4917971;29;20256;-85
2024/04/07 01:40:48;;;;;;;23.38;17.35;;;14.30;78.30;;;;;;4917999;29;20609;-86
2024/04/07 01:43:14;;;;;;;19.05;17.55;;;14.30;78.90;;;;;;4916653;29;20588;-85
2024/04/07 01:45:39;;;;;;;18.83;17.60;;;14.30;78.70;;;;;;4917925;29;20196;-85
2024/04/07 01:48:05;;;;;;;19.67;18.20;;;14.30;78.80;;;;;;4916634;29;20169;-85
2024/04/07 01:50:31;;;;;;;19.08;17.65;;;14.40;77.50;;;;;;4917624;29;20181;-85
2024/04/07 01:52:57;;;;;;;18.58;17.38;;;14.50;77.10;;;;;;4917796;29;20200;-85
2024/04/07 01:55:22;;;;;;;18.83;17.42;;;14.60;76.60;;;;;;4916456;29;20185;-85
2024/04/07 01:57:48;;;;;;;18.42;16.92;;;14.70;76.20;;;;;;4917879;29;20184;-85
2024/04/07 02:00:13;;;;;;;19.45;17.90;;;14.70;76.00;;;;;;4918150;29;20185;-85
2024/04/07 02:02:39;;;;;;;18.80;17.25;;;14.80;75.80;;;;;;4917983;29;20184;-85
2024/04/07 02:05:05;;;;;;;17.83;16.65;;;14.80;75.80;;;;;;4917808;29;20220;-85
2024/04/07 02:07:32;;;;;;;17.92;16.63;;;14.80;75.80;;;;;;4917809;29;20200;-85
2024/04/07 02:09:58;;;;;;;18.40;16.70;;;14.80;76.00;;;;;;4916456;29;20176;-86
2024/04/07 02:12:24;;;;;;;18.23;16.65;;;14.80;76.10;;;;;;4917582;29;20173;-86
2024/04/07 02:14:49;;;;;;;18.13;16.75;;;14.80;75.80;;;;;;4916521;29;20239;-86
2024/04/07 02:17:15;;;;;;;17.10;15.85;;;14.80;76.00;;;;;;4916676;29;20537;-86
2024/04/07 02:19:41;;;;;;;17.15;16.00;;;14.80;76.30;;;;;;4918706;29;20177;-86
2024/04/07 02:22:07;;;;;;;16.77;15.15;;;14.70;76.80;;;;;;4920514;29;20200;-86
2024/04/07 02:24:33;;;;;;;16.92;15.63;;;14.70;77.30;;;;;;4921176;29;20247;-86
2024/04/07 02:26:58;;;;;;;17.90;16.60;;;14.70;77.40;;;;;;4919919;29;20180;-85
2024/04/07 02:29:24;;;;;;;17.15;15.73;;;14.60;77.20;;;;;;4921205;29;20169;-86
2024/04/07 02:31:49;;;;;;;17.33;15.93;;;14.80;76.60;;;;;;4921197;29;20260;-86
2024/04/07 02:34:15;;;;;;;17.33;16.08;;;14.80;76.00;;;;;;4920608;29;20200;-85
2024/04/07 02:36:40;;;;;;;17.58;16.27;;;15.00;75.40;;;;;;4920398;29;20192;-85
2024/04/07 02:39:09;;;;;;;17.83;16.20;;;15.00;75.10;;;;;;4920814;29;20650;-85
2024/04/07 02:41:36;;;;;;;17.23;15.82;;;15.10;74.90;;;;;;4920419;29;20263;-85
2024/04/07 02:44:03;;;;;;;17.13;15.95;;;15.10;74.60;;;;;;4919774;29;20340;-87
2024/04/07 02:49:13;;;;;;;16.63;15.52;;;15.00;75.10;;;;;;4920790;29;20548;-85
2024/04/07 02:51:39;;;;;;;17.38;15.98;;;14.90;75.40;;;;;;4919349;29;20185;-85
2024/04/07 02:54:04;;;;;;;17.23;16.13;;;15.00;75.00;;;;;;4920640;29;20328;-85
2024/04/07 02:56:30;;;;;;;17.30;15.95;;;14.90;75.30;;;;;;4920641;29;20204;-85
2024/04/07 02:58:56;;;;;;;17.73;16.42;;;15.00;74.80;;;;;;4920512;29;20185;-85
2024/04/07 03:01:21;;;;;;;17.48;16.27;;;15.10;74.40;;;;;;4918788;29;20225;-85
2024/04/07 03:03:48;;;;;;;17.70;16.38;;;15.00;74.60;;;;;;4920121;29;20228;-85
2024/04/07 03:06:14;;;;;;;17.38;16.20;;;15.00;74.70;;;;;;4920077;29;20267;-85
2024/04/07 03:08:40;;;;;;;16.85;15.75;;;14.90;74.90;;;;;;4920257;29;20707;-85
2024/04/07 03:11:07;;;;;;;17.38;16.02;;;15.00;74.70;;;;;;4920043;29;20180;-88
2024/04/07 03:13:34;;;;;;;17.83;16.40;;;14.90;75.00;;;;;;4918800;29;20832;-85
2024/04/07 03:16:00;;;;;;;18.50;17.10;;;14.80;75.30;;;;;;4920169;29;20181;-87
2024/04/07 03:18:26;;;;;;;18.33;16.95;;;14.80;75.40;;;;;;4920068;29;20220;-85
2024/04/07 03:20:52;;;;;;;18.33;16.92;;;14.80;75.20;;;;;;4920219;29;20185;-85
2024/04/07 03:23:18;;;;;;;18.25;16.85;;;15.00;74.50;;;;;;4918626;29;20681;-84
2024/04/07 03:25:43;;;;;;;17.73;16.40;;;15.00;74.40;;;;;;4918577;29;20215;-85
2024/04/07 03:28:09;;;;;;;17.45;16.10;;;15.00;74.30;;;;;;4918618;29;20177;-84
2024/04/07 03:30:36;;;;;;;17.08;15.65;;;14.90;74.80;;;;;;4919557;29;20587;-85
2024/04/07 03:33:02;;;;;;;29.15;27.08;;;14.80;75.80;;;;;;4917917;29;20192;-85
2024/04/07 03:35:29;;;;;;;31.23;29.23;;;14.70;76.60;;;;;;4919766;29;20647;-85
2024/04/07 03:37:54;;;;;;;31.83;29.70;;;14.60;77.00;;;;;;4919778;29;20204;-85
2024/04/07 03:40:20;;;;;;;31.30;29.30;;;14.50;77.50;;;;;;4919903;29;20184;-85
2024/04/07 03:42:45;;;;;;;31.75;29.23;;;14.50;77.20;;;;;;4919590;29;20602;-85
2024/04/07 03:45:11;;;;;;;32.50;30.40;;;14.50;77.40;;;;;;4919107;29;20200;-85
2024/04/07 03:47:37;;;;;;;33.08;30.98;;;14.50;76.50;;;;;;4919673;29;20173;-85
2024/04/07 03:50:03;;;;;;;29.27;27.38;;;14.60;75.40;;;;;;4919372;29;20232;-85
2024/04/07 03:52:29;;;;;;;29.65;27.17;;;14.70;75.30;;;;;;4919607;29;20595;-86
2024/04/07 03:54:54;;;;;;;29.60;27.70;;;14.70;75.70;;;;;;4919642;29;20177;-87
2024/04/07 03:57:20;;;;;;;29.75;27.85;;;14.60;76.20;;;;;;4919255;29;20203;-85
2024/04/07 03:59:45;;;;;;;29.75;27.73;;;14.70;75.30;;;;;;4919003;29;20184;-86
2024/04/07 04:02:20;;;;;;;30.85;28.85;;;14.70;75.70;;;;;;4919660;29;20637;-85
2024/04/07 04:04:54;;;;;;;19.70;18.30;;;14.80;75.10;;;;;;4917646;29;20212;-85
2024/04/07 04:07:19;;;;;;;18.40;16.92;;;14.90;74.50;;;;;;4919228;29;20161;-85
2024/04/07 04:09:45;;;;;;;18.70;17.40;;;14.60;76.80;;;;;;4919603;29;20183;-85
2024/04/07 04:12:11;;;;;;;18.83;17.42;;;15.10;73.80;;;;;;4919823;29;20179;-84
2024/04/07 04:14:36;;;;;;;19.00;17.45;;;15.50;71.20;;;;;;4917663;29;20607;-85
2024/04/07 04:17:02;;;;;;;19.00;17.60;;;15.60;71.40;;;;;;4919314;29;20662;-85
2024/04/07 04:19:27;;;;;;;19.35;17.85;;;15.50;72.20;;;;;;4918262;29;20195;-85
2024/04/07 04:21:53;;;;;;;18.98;17.67;;;15.50;72.40;;;;;;4919562;29;20188;-85
2024/04/07 04:24:22;;;;;;;20.00;18.33;;;15.50;72.60;;;;;;4918969;29;20213;-85
2024/04/07 04:26:47;;;;;;;20.05;18.45;;;15.80;71.00;;;;;;4919053;29;20188;-85
2024/04/07 04:29:13;;;;;;;20.35;18.75;;;15.80;71.00;;;;;;4917853;29;20177;-86
2024/04/07 04:31:38;;;;;;;24.33;19.10;;;15.80;71.20;;;;;;4917981;29;20180;-86
2024/04/07 04:34:04;;;;;;;20.17;18.60;;;15.90;70.80;;;;;;4919330;29;20228;-86
2024/04/07 04:36:29;;;;;;;19.13;17.70;;;15.80;71.20;;;;;;4919623;29;20219;-85
2024/04/07 04:38:55;;;;;;;19.17;17.85;;;15.90;70.40;;;;;;4919237;29;20187;-87
2024/04/07 04:41:20;;;;;;;20.40;18.90;;;16.10;69.60;;;;;;4918545;29;20184;-85
2024/04/07 04:43:46;;;;;;;19.75;18.15;;;16.10;70.00;;;;;;4917695;29;20685;-86
2024/04/07 04:46:13;;;;;;;19.42;18.02;;;16.20;69.60;;;;;;4918569;29;20179;-86
2024/04/07 04:48:39;;;;;;;18.48;17.17;;;16.20;70.30;;;;;;4916970;29;20176;-85
2024/04/07 04:51:05;;;;;;;19.27;17.75;;;16.00;71.50;;;;;;4917360;29;20679;-85
2024/04/07 04:53:31;;;;;;;18.27;16.77;;;15.80;73.00;;;;;;4916901;29;20196;-86
2024/04/07 04:56:02;;;;;;;18.48;17.00;;;15.60;74.30;;;;;;4919052;29;20180;-85
2024/04/07 04:58:29;;;;;;;18.38;16.88;;;15.50;74.80;;;;;;4919337;29;20228;-85
2024/04/07 05:00:55;;;;;;;18.38;16.60;;;15.30;75.20;;;;;;4918993;29;20176;-85
2024/04/07 05:03:21;;;;;;;17.83;16.27;;;15.30;75.70;;;;;;4917269;29;20193;-85
2024/04/07 05:05:47;;;;;;;17.85;16.17;;;15.20;76.30;;;;;;4918873;29;20208;-85
2024/04/07 05:08:13;;;;;;;17.20;15.70;;;15.10;76.80;;;;;;4919251;29;20661;-85
2024/04/07 05:10:39;;;;;;;17.15;15.57;;;15.00;77.20;;;;;;4919047;29;20173;-86
2024/04/07 05:13:05;;;;;;;16.27;14.98;;;15.00;77.40;;;;;;4919042;29;20200;-86
2024/04/07 05:15:30;;;;;;;16.23;14.60;;;15.00;77.80;;;;;;4918256;29;20179;-85
2024/04/07 05:17:56;;;;;;;16.60;15.10;;;15.00;78.10;;;;;;4916712;29;20646;-85
2024/04/07 05:20:21;;;;;;;15.35;14.00;;;15.00;78.20;;;;;;4918175;29;20177;-85
2024/04/07 05:22:47;;;;;;;14.90;13.68;;;15.00;78.30;;;;;;4918365;29;20251;-85
2024/04/07 05:25:12;;;;;;;14.05;12.90;;;14.90;78.50;;;;;;4918293;29;20213;-87
2024/04/07 05:27:38;;;;;;;14.32;12.85;;;15.00;78.40;;;;;;4918091;29;20169;-85
2024/04/07 05:30:04;;;;;;;13.77;12.57;;;15.00;78.70;;;;;;4918346;29;20176;-87
2024/04/07 05:32:30;;;;;;;13.98;12.65;;;15.00;79.00;;;;;;4918679;29;20177;-85
2024/04/07 05:34:56;;;;;;;13.80;12.45;;;14.90;79.30;;;;;;4917014;29;20649;-87
2024/04/07 05:37:21;;;;;;;12.90;11.80;;;14.90;79.70;;;;;;4918665;29;20264;-85
2024/04/07 05:39:51;;;;;;;13.45;12.23;;;14.90;79.80;;;;;;4917607;29;20530;-85
2024/04/07 05:42:19;;;;;;;13.52;12.10;;;14.80;80.20;;;;;;4918947;29;20181;-87
2024/04/07 05:44:46;;;;;;;13.25;12.00;;;14.80;80.30;;;;;;4918453;29;20683;-86
2024/04/07 05:47:11;;;;;;;13.40;11.98;;;14.80;80.50;;;;;;4918533;29;20683;-85
2024/04/07 05:49:38;;;;;;;12.48;11.55;;;14.80;80.80;;;;;;4917236;29;20177;-85
2024/04/07 05:52:07;;;;;;;13.38;12.10;;;14.80;81.00;;;;;;4918858;29;20192;-88
2024/04/07 05:54:33;;;;;;;13.18;11.98;;;14.80;81.10;;;;;;4919044;29;20205;-85
2024/04/07 05:56:59;;;;;;;12.13;11.00;;;14.80;80.90;;;;;;4922369;29;20191;-85
2024/04/07 05:59:24;;;;;;;16.13;11.63;;;14.90;80.90;;;;;;4920776;29;20748;-85
2024/04/07 06:01:50;;;;;;;12.45;11.18;;;14.80;80.80;;;;;;4921749;29;20172;-85
2024/04/07 06:04:16;;;;;;;11.80;10.85;;;14.90;80.40;;;;;;4921731;29;20213;-83
2024/04/07 06:06:41;;;;;;;12.75;10.57;;;15.00;80.30;;;;;;4922133;29;20185;-86
2024/04/07 06:09:07;;;;;;;11.25;10.38;;;14.90;80.70;;;;;;4920083;29;20275;-85
2024/04/07 06:11:33;;;;;;;13.90;11.70;;;15.00;80.60;;;;;;4920592;29;20208;-85
2024/04/07 06:13:59;;;;;;;12.02;10.90;;;15.00;80.50;;;;;;4921022;29;20200;-85
2024/04/07 06:16:24;;;;;;;12.18;10.95;;;15.00;80.30;;;;;;4921750;29;20181;-86
2024/04/07 06:18:51;;;;;;;11.73;10.68;;;14.90;80.60;;;;;;4920845;29;20188;-86
2024/04/07 06:21:17;;;;;;;11.82;10.90;;;15.00;79.90;;;;;;4921833;29;20173;-86
2024/04/07 06:23:43;;;;;;;12.20;11.10;;;15.10;80.10;;;;;;4921457;29;20227;-85
2024/04/07 06:26:08;;;;;;;12.20;11.13;;;15.00;80.10;;;;;;4921251;29;20709;-86
2024/04/07 06:28:34;;;;;;;12.55;11.40;;;15.00;79.50;;;;;;4921859;29;20252;-85
2024/04/07 06:31:00;;;;;;;11.45;10.50;;;15.10;78.80;;;;;;4920955;29;20291;-87
2024/04/07 06:33:26;;;;;;;11.90;11.00;;;15.10;78.80;;;;;;4920354;29;20200;-85
2024/04/07 06:35:53;;;;;;;11.57;10.88;;;15.10;78.60;;;;;;4920819;29;20185;-85
2024/04/07 06:38:18;;;;;;;10.95;10.25;;;15.10;78.20;;;;;;4920558;29;20189;-86
2024/04/07 06:40:44;;;;;;;11.80;10.95;;;15.00;78.90;;;;;;4920517;29;20180;-85
2024/04/07 06:43:09;;;;;;;11.50;10.80;;;15.00;78.80;;;;;;4919134;29;20200;-85
2024/04/07 06:45:35;;;;;;;11.25;10.50;;;15.00;79.30;;;;;;4920418;29;20211;-85
2024/04/07 06:48:01;;;;;;;10.50;9.70;;;14.90;79.40;;;;;;4921024;29;20183;-85
2024/04/07 06:50:26;;;;;;;10.60;9.70;;;14.80;80.20;;;;;;4920881;29;20173;-85
2024/04/07 06:52:52;;;;;;;9.98;9.25;;;14.70;80.10;;;;;;4920655;29;20204;-85
2024/04/07 06:55:19;;;;;;;10.07;9.25;;;14.60;80.90;;;;;;4920989;29;20192;-85
2024/04/07 06:57:44;;;;;;;9.77;9.05;;;14.60;80.90;;;;;;4920640;29;20263;-85
2024/04/07 07:00:12;;;;;;;8.80;8.20;;;14.50;81.40;;;;;;4920298;29;20204;-87
2024/04/07 07:02:37;;;;;;;9.23;8.32;;;14.50;82.00;;;;;;4919960;29;20188;-85
2024/04/07 07:05:03;;;;;;;8.80;8.23;;;14.50;82.10;;;;;;4920287;29;20212;-85
2024/04/07 07:07:28;;;;;;;8.15;7.57;;;14.40;82.70;;;;;;4919438;29;20173;-84
2024/04/07 07:09:54;;;;;;;8.02;7.50;;;14.30;83.50;;;;;;4920057;29;20184;-85
2024/04/07 07:12:20;;;;;;;8.20;7.60;;;14.30;83.80;;;;;;4918698;29;20196;-85
2024/04/07 07:14:45;;;;;;;7.57;6.88;;;14.30;84.00;;;;;;4920541;29;20576;-87
2024/04/07 07:17:11;;;;;;;7.18;6.57;;;14.20;84.70;;;;;;4919276;29;20173;-85
2024/04/07 07:19:36;;;;;;;7.30;6.65;;;14.20;85.00;;;;;;4919231;29;20544;-87
2024/04/07 07:22:02;;;;;;;7.03;6.53;;;14.20;84.90;;;;;;4917686;29;20679;-87
2024/04/07 07:24:27;;;;;;;6.70;6.10;;;14.20;85.00;;;;;;4918736;29;20744;-86
2024/04/07 07:26:53;;;;;;;6.70;5.95;;;14.20;85.70;;;;;;4917648;29;20184;-87
2024/04/07 07:29:19;;;;;;;6.43;5.93;;;14.20;85.60;;;;;;4917502;29;20184;-86
2024/04/07 07:31:44;;;;;;;6.20;5.80;;;14.20;85.50;;;;;;4918686;29;20184;-86
2024/04/07 07:34:11;;;;;;;6.55;5.93;;;14.20;85.60;;;;;;4918854;29;20228;-85
2024/04/07 07:36:37;;;;;;;7.18;5.70;;;14.20;85.80;;;;;;4918734;29;20182;-86
2024/04/07 07:39:05;;;;;;;8.25;5.70;;;14.20;86.00;;;;;;4918984;29;20185;-86
2024/04/07 07:41:31;;;;;;;6.50;5.90;;;14.10;86.10;;;;;;4918651;29;20169;-85
2024/04/07 07:43:56;;;;;;;7.35;6.30;;;14.20;84.80;;;;;;4918381;29;20215;-85
2024/04/07 07:46:22;;;;;;;6.78;6.25;;;14.30;84.90;;;;;;4917367;29;20646;-86
2024/04/07 07:48:48;;;;;;;6.05;5.60;;;14.20;85.20;;;;;;4918485;29;20177;-85
2024/04/07 07:51:13;;;;;;;6.77;6.03;;;14.20;85.30;;;;;;4918489;29;20169;-86
2024/04/07 07:53:40;;;;;;;6.50;6.00;;;14.30;84.80;;;;;;4917116;29;20200;-85
2024/04/07 07:56:09;;;;;;;7.10;6.50;;;14.30;84.80;;;;;;4917147;29;20176;-86
2024/04/07 07:58:36;;;;;;;7.15;6.40;;;14.30;84.30;;;;;;4918857;29;20668;-86
2024/04/07 08:01:02;;;;;;;7.60;6.90;;;14.40;84.70;;;;;;4917071;29;20611;-84
2024/04/07 08:03:28;;;;;;;7.57;6.88;;;14.50;84.00;;;;;;4918302;29;20204;-86
2024/04/07 08:05:53;;;;;;;6.78;6.22;;;14.50;83.80;;;;;;4916701;29;20693;-85
2024/04/07 08:08:20;;;;;;;7.53;6.93;;;14.50;84.40;;;;;;4918228;29;20180;-85
2024/04/07 08:10:46;;;;;;;7.68;7.00;;;14.60;84.20;;;;;;4916847;29;20232;-85
2024/04/07 08:13:12;;;;;;;7.55;6.85;;;14.60;83.80;;;;;;4918345;29;20196;-85
2024/04/07 08:15:38;;;;;;;7.13;6.53;;;14.70;83.50;;;;;;4918066;29;20680;-87
2024/04/07 08:18:03;;;;;;;7.22;6.55;;;14.70;83.50;;;;;;4916843;29;20188;-86
2024/04/07 08:20:29;;;;;;;7.32;6.70;;;14.80;83.50;;;;;;4916928;29;20181;-86
2024/04/07 08:22:54;;;;;;;7.70;7.07;;;14.90;82.60;;;;;;4917792;29;20196;-86
2024/04/07 08:25:20;;;;;;;7.80;7.20;;;15.00;82.10;;;;;;4916669;29;20208;-87
2024/04/07 08:27:45;;;;;;;8.25;7.05;;;15.00;82.00;;;;;;4916837;29;20615;-86
2024/04/07 08:30:11;;;;;;;7.22;6.72;;;15.10;82.40;;;;;;4917933;29;20172;-86
2024/04/07 08:32:38;;;;;;;8.35;7.65;;;15.20;82.20;;;;;;4917899;29;20591;-86
2024/04/07 08:35:04;;;;;;;8.32;7.60;;;15.20;80.90;;;;;;4918375;29;20177;-85
2024/04/07 08:37:29;;;;;;;8.23;7.72;;;15.20;81.10;;;;;;4918579;29;20184;-85
2024/04/07 08:39:55;;;;;;;9.60;7.93;;;15.30;81.00;;;;;;4916657;29;20189;-86
2024/04/07 08:42:21;;;;;;;9.05;8.05;;;15.30;80.70;;;;;;4917861;29;20180;-85
2024/04/07 08:44:47;;;;;;;8.40;7.75;;;15.40;80.60;;;;;;4917748;29;20201;-87
2024/04/07 08:47:16;;;;;;;9.07;8.27;;;15.50;80.70;;;;;;4917840;29;20173;-86
2024/04/07 08:49:42;;;;;;;9.45;8.55;;;15.70;79.80;;;;;;4916496;29;20184;-85
2024/04/07 08:52:09;;;;;;;9.15;8.38;;;15.70;79.80;;;;;;4917908;29;20172;-86
2024/04/07 08:54:36;;;;;;;9.77;8.80;;;15.80;79.60;;;;;;4916290;29;20201;-86
2024/04/07 08:57:13;;;;;;;10.27;9.35;;;15.80;79.40;;;;;;4916673;29;20185;-86
2024/04/07 08:59:40;;;;;;;9.32;8.73;;;15.90;78.70;;;;;;4916174;29;20169;-86
2024/04/07 09:02:07;;;;;;;9.93;9.02;;;16.00;79.00;;;;;;4916169;29;20184;-86
2024/04/07 09:04:33;;;;;;;11.20;10.20;;;16.10;78.70;;;;;;4916063;29;20240;-86
2024/04/07 09:07:06;;;;;;;9.88;9.07;;;16.20;77.30;;;;;;4917381;29;20539;-86
2024/04/07 09:09:31;;;;;;;10.45;9.70;;;16.30;78.40;;;;;;4917257;29;20553;-85
2024/04/07 09:11:58;;;;;;;10.73;9.88;;;16.60;77.70;;;;;;4917449;29;20255;-86
2024/04/07 09:14:28;;;;;;;10.32;9.68;;;16.80;76.60;;;;;;4917225;29;20697;-87
2024/04/07 09:17:06;;;;;;;12.13;11.23;;;17.10;76.10;;;;;;4917243;29;20264;-86
2024/04/07 09:19:33;;;;;;;10.88;9.98;;;17.20;75.10;;;;;;4917377;29;20192;-87
2024/04/07 09:21:59;;;;;;;11.27;10.45;;;17.30;74.80;;;;;;4917305;29;20184;-87
2024/04/07 09:24:25;;;;;;;12.27;11.57;;;17.30;73.40;;;;;;4915878;29;20338;-87
2024/04/07 09:26:52;;;;;;;13.65;12.50;;;17.50;72.80;;;;;;4917288;29;20173;-87
2024/04/07 09:29:18;;;;;;;13.70;12.60;;;17.50;73.60;;;;;;4918045;29;20172;-86
2024/04/07 09:31:43;;;;;;;15.32;14.32;;;17.50;71.70;;;;;;4923729;29;20203;-87
2024/04/07 09:34:10;;;;;;;14.00;13.00;;;17.60;70.80;;;;;;4923148;29;20211;-87
2024/04/07 09:36:35;;;;;;;14.48;13.13;;;17.80;71.90;;;;;;4923461;29;20183;-86
2024/04/07 09:39:03;;;;;;;15.40;14.07;;;18.00;71.10;;;;;;4923477;29;20180;-87
2024/04/07 09:41:30;;;;;;;16.58;15.32;;;18.00;70.70;;;;;;4923449;29;20277;-87
2024/04/07 09:43:56;;;;;;;16.20;15.00;;;18.00;70.30;;;;;;4923310;29;20207;-86
2024/04/07 09:46:22;;;;;;;16.90;15.63;;;18.00;69.50;;;;;;4923344;29;20176;-87
2024/04/07 09:48:53;;;;;;;15.70;14.65;;;18.00;69.60;;;;;;4922273;29;20180;-87
2024/04/07 09:51:21;;;;;;;15.80;14.70;;;17.90;69.40;;;;;;4922049;29;20184;-86
2024/04/07 09:54:45;;;;;;;17.50;16.08;;;17.80;69.80;;;;;;4923071;29;20200;-87
2024/04/07 09:57:13;;;;;;;16.05;14.85;;;17.80;69.80;;;;;;4923381;29;20552;-87
2024/04/07 09:59:40;;;;;;;16.25;14.95;;;17.90;70.90;;;;;;4923425;29;20169;-87
2024/04/07 10:02:06;;;;;;;15.40;14.13;;;17.80;70.00;;;;;;4922065;29;20652;-87
2024/04/07 10:04:36;;;;;;;16.75;15.45;;;17.80;72.10;;;;;;4922050;29;20224;-88
2024/04/07 10:07:02;;;;;;;16.83;15.45;;;18.00;70.70;;;;;;4923416;29;20507;-86
2024/04/07 10:09:29;;;;;;;17.77;16.17;;;18.00;70.80;;;;;;4922319;29;20231;-87
2024/04/07 10:11:55;;;;;;;16.27;14.82;;;18.20;70.50;;;;;;4922192;29;20182;-87
2024/04/07 10:14:22;;;;;;;16.67;15.50;;;18.30;70.90;;;;;;4923336;29;20276;-86
2024/04/07 10:16:51;;;;;;;15.35;14.15;;;18.30;70.90;;;;;;4923086;29;20544;-86
2024/04/07 10:19:26;;;;;;;16.23;15.00;;;18.50;70.80;;;;;;4923113;29;20180;-86
2024/04/07 10:21:52;;;;;;;16.23;15.13;;;18.50;70.80;;;;;;4922394;29;20300;-86
2024/04/07 10:24:18;;;;;;;17.48;15.80;;;18.50;70.10;;;;;;4922983;29;20291;-86
2024/04/07 10:26:59;;;;;;;17.55;16.38;;;18.40;69.30;;;;;;4922964;29;20188;-86
2024/04/07 10:29:26;;;;;;;15.70;14.35;;;18.30;68.40;;;;;;4923137;29;20221;-85
2024/04/07 10:31:52;;;;;;;18.45;16.63;;;18.50;70.70;;;;;;4921977;29;20181;-87
2024/04/07 10:34:17;;;;;;;17.38;15.95;;;18.40;67.70;;;;;;4922938;29;20572;-87
2024/04/07 10:36:55;;;;;;;17.40;16.10;;;18.30;67.50;;;;;;4921860;29;20661;-87
2024/04/07 10:39:21;;;;;;;17.08;15.43;;;18.50;68.90;;;;;;4921830;29;20652;-88
2024/04/07 10:41:47;;;;;;;19.30;17.85;;;18.80;70.20;;;;;;4920227;29;20177;-87
2024/04/07 10:44:13;;;;;;;18.38;16.73;;;18.70;66.80;;;;;;4918751;29;20231;-86
2024/04/07 10:46:38;;;;;;;17.55;16.10;;;18.80;65.70;;;;;;4918804;29;20237;-86
2024/04/07 10:49:05;;;;;;;16.92;15.70;;;18.70;67.40;;;;;;4918852;29;20176;-86
2024/04/07 10:51:33;;;;;;;18.52;17.17;;;19.00;67.80;;;;;;4918951;29;20176;-87
2024/04/07 10:54:04;;;;;;;19.20;17.63;;;19.20;68.30;;;;;;4919790;29;20299;-87
2024/04/07 10:56:30;;;;;;;18.02;16.77;;;19.00;66.40;;;;;;4918558;29;20175;-85
2024/04/07 10:59:00;;;;;;;18.25;16.75;;;19.00;66.10;;;;;;4918557;29;20228;-86
2024/04/07 11:01:26;;;;;;;18.35;16.83;;;18.80;66.70;;;;;;4919775;29;20173;-87
2024/04/07 11:03:59;;;;;;;18.48;17.08;;;18.70;68.10;;;;;;4918490;29;20205;-86
2024/04/07 11:06:25;;;;;;;17.90;16.50;;;19.00;66.90;;;;;;4918271;29;20196;-87
2024/04/07 11:08:52;;;;;;;17.15;15.93;;;19.00;66.80;;;;;;4918352;29;20228;-85
2024/04/07 11:11:19;;;;;;;17.52;16.33;;;19.20;67.10;;;;;;4919441;29;20173;-86
2024/04/07 11:13:46;;;;;;;17.58;16.23;;;19.20;65.20;;;;;;4918077;29;20204;-85
2024/04/07 11:16:12;;;;;;;17.30;16.20;;;19.30;65.40;;;;;;4918261;29;20219;-85
2024/04/07 11:18:37;;;;;;;17.00;15.50;;;19.10;66.00;;;;;;4919652;29;20204;-86
2024/04/07 11:21:04;;;;;;;19.58;15.45;;;19.50;66.70;;;;;;4918237;29;20184;-86
2024/04/07 11:23:30;;;;;;;16.40;15.30;;;19.30;65.80;;;;;;4919181;29;20236;-85
2024/04/07 11:25:56;;;;;;;18.13;16.75;;;19.20;66.50;;;;;;4919330;29;20287;-86
2024/04/07 11:28:22;;;;;;;18.45;17.02;;;19.00;66.40;;;;;;4918059;29;20177;-88
2024/04/07 11:30:50;;;;;;;19.27;17.25;;;19.20;65.40;;;;;;4919093;29;20169;-87
2024/04/07 11:33:16;;;;;;;25.52;18.00;;;19.20;66.50;;;;;;4918121;29;20197;-86
2024/04/07 11:35:42;;;;;;;19.27;17.40;;;18.90;65.50;;;;;;4918548;29;20653;-88
2024/04/07 11:38:09;;;;;;;19.73;17.83;;;18.90;65.30;;;;;;4918646;29;20189;-87
2024/04/07 11:40:35;;;;;;;19.50;17.73;;;18.70;64.60;;;;;;4918404;29;20207;-87
2024/04/07 11:43:01;;;;;;;19.02;17.52;;;18.70;65.40;;;;;;4918718;29;20243;-88
2024/04/07 11:45:26;;;;;;;19.95;17.80;;;18.90;64.20;;;;;;4919477;29;20291;-86
2024/04/07 11:47:53;;;;;;;19.60;17.20;;;19.00;63.20;;;;;;4918921;29;20605;-85
2024/04/07 11:50:19;;;;;;;19.25;17.50;;;18.90;64.90;;;;;;4918650;29;20550;-86
2024/04/07 11:52:44;;;;;;;19.50;17.90;;;19.00;65.90;;;;;;4917049;29;20252;-85
2024/04/07 11:55:10;;;;;;;18.80;17.20;;;18.70;64.00;;;;;;4918853;29;20590;-85
2024/04/07 11:57:36;;;;;;;19.05;17.30;;;18.80;66.40;;;;;;4918724;29;20624;-84
2024/04/07 12:00:02;;;;;;;18.60;17.20;;;18.70;66.30;;;;;;4918595;29;20263;-84
2024/04/07 12:02:29;;;;;;;17.80;16.40;;;18.90;66.90;;;;;;4918507;29;20177;-85
2024/04/07 12:04:54;;;;;;;18.38;17.00;;;19.50;66.80;;;;;;4918266;29;20212;-84
2024/04/07 12:07:20;;;;;;;18.90;17.30;;;19.70;64.80;;;;;;4916915;29;20188;-85
2024/04/07 12:09:45;;;;;;;18.95;17.65;;;19.90;63.30;;;;;;4918413;29;20169;-84
2024/04/07 12:12:11;;;;;;;19.13;17.83;;;19.90;61.90;;;;;;4918203;29;20236;-85
2024/04/07 12:14:37;;;;;;;20.02;18.52;;;20.00;60.00;;;;;;4917554;29;20252;-85
2024/04/07 12:17:04;;;;;;;18.83;17.48;;;19.70;58.10;;;;;;4917048;29;20184;-85
2024/04/07 12:19:30;;;;;;;18.73;17.42;;;19.80;61.60;;;;;;4916927;29;20181;-85
2024/04/07 12:21:55;;;;;;;19.45;18.05;;;20.10;60.90;;;;;;4918197;29;20566;-85
2024/04/07 12:24:21;;;;;;;20.02;18.52;;;20.20;61.50;;;;;;4918106;29;20716;-86
2024/04/07 12:26:46;;;;;;;19.48;18.10;;;20.10;58.50;;;;;;4918393;29;20228;-86
2024/04/07 12:29:12;;;;;;;19.17;17.67;;;20.20;60.10;;;;;;4916742;29;20176;-86